sensor_id;sensor_type;location;lat;lon;timestamp;pressure;altitude;pressure_sealevel;temperature;humidity
75136;BME280;63707;52.212;9.540;2023-02-28T00:01:02;101556.66;;;-1.71;100.00
75136;BME280;63707;52.212;9.540;2023-02-28T00:03:28;101560.00;;;-1.67;100.00
75136;BME280;63707;52.212;9.540;2023-02-28T00:05:53;101558.59;;;-1.59;100.00
75136;BME280;63707;52.212;9.540;2023-02-28T00:08:19;101556.28;;;-1.65;100.00
75136;BME280;63707;52.212;9.540;2023-02-28T00:10:46;101556.97;;;-1.61;100.00
75136;BME280;63707;52.212;9.540;2023-02-28T00:13:11;101563.47;;;-1.51;100.00
75136;BME280;63707;52.212;9.540;2023-02-28T00:15:37;101556.13;;;-1.47;100.00
75136;BME280;63707;52.212;9.540;2023-02-28T00:18:02;101556.41;;;-1.52;100.00
75136;BME280;63707;52.212;9.540;2023-02-28T00:20:28;101549.06;;;-1.48;100.00
75136;BME280;63707;52.212;9.540;2023-02-28T00:22:55;101550.97;;;-1.50;100.00
75136;BME280;63707;52.212;9.540;2023-02-28T00:25:22;101548.19;;;-1.49;100.00
75136;BME280;63707;52.212;9.540;2023-02-28T00:27:50;101545.34;;;-1.46;100.00
75136;BME280;63707;52.212;9.540;2023-02-28T00:30:17;101550.59;;;-1.44;100.00
75136;BME280;63707;52.212;9.540;2023-02-28T00:32:43;101538.88;;;-1.42;100.00
75136;BME280;63707;52.212;9.540;2023-02-28T00:35:10;101546.91;;;-1.42;100.00
75136;BME280;63707;52.212;9.540;2023-02-28T00:37:36;101545.72;;;-1.52;100.00
75136;BME280;63707;52.212;9.540;2023-02-28T00:40:02;101546.84;;;-1.56;100.00
75136;BME280;63707;52.212;9.540;2023-02-28T00:42:30;101534.91;;;-1.65;100.00
75136;BME280;63707;52.212;9.540;2023-02-28T00:44:57;101553.31;;;-1.74;100.00
75136;BME280;63707;52.212;9.540;2023-02-28T00:47:22;101542.13;;;-1.81;100.00
75136;BME280;63707;52.212;9.540;2023-02-28T00:49:48;101545.41;;;-1.92;100.00
75136;BME280;63707;52.212;9.540;2023-02-28T00:52:13;101546.72;;;-1.99;100.00
75136;BME280;63707;52.212;9.540;2023-02-28T00:54:39;101538.69;;;-1.99;100.00
75136;BME280;63707;52.212;9.540;2023-02-28T00:57:04;101539.91;;;-2.04;100.00
75136;BME280;63707;52.212;9.540;2023-02-28T00:59:29;101548.47;;;-2.13;100.00
75136;BME280;63707;52.212;9.540;2023-02-28T01:01:56;101546.69;;;-2.29;100.00
75136;BME280;63707;52.212;9.540;2023-02-28T01:04:22;101545.91;;;-2.31;100.00
75136;BME280;63707;52.212;9.540;2023-02-28T01:06:47;101550.66;;;-2.36;100.00
75136;BME280;63707;52.212;9.540;2023-02-28T01:09:13;101547.63;;;-2.45;100.00
75136;BME280;63707;52.212;9.540;2023-02-28T01:11:38;101544.97;;;-2.61;100.00
75136;BME280;63707;52.212;9.540;2023-02-28T01:14:05;101547.97;;;-2.51;100.00
75136;BME280;63707;52.212;9.540;2023-02-28T01:16:31;101555.47;;;-2.58;100.00
75136;BME280;63707;52.212;9.540;2023-02-28T01:18:58;101554.78;;;-2.77;100.00
75136;BME280;63707;52.212;9.540;2023-02-28T01:21:24;101555.38;;;-2.72;100.00
75136;BME280;63707;52.212;9.540;2023-02-28T01:23:49;101555.34;;;-2.88;100.00
75136;BME280;63707;52.212;9.540;2023-02-28T01:26:16;101562.69;;;-2.76;100.00
75136;BME280;63707;52.212;9.540;2023-02-28T01:28:43;101559.34;;;-2.79;100.00
75136;BME280;63707;52.212;9.540;2023-02-28T01:31:09;101561.06;;;-2.78;100.00
75136;BME280;63707;52.212;9.540;2023-02-28T01:33:34;101566.66;;;-2.83;100.00
75136;BME280;63707;52.212;9.540;2023-02-28T01:36:03;101563.66;;;-2.94;100.00
75136;BME280;63707;52.212;9.540;2023-02-28T01:38:29;101555.97;;;-2.83;100.00
75136;BME280;63707;52.212;9.540;2023-02-28T01:40:55;101554.78;;;-3.10;100.00
75136;BME280;63707;52.212;9.540;2023-02-28T01:43:23;101559.69;;;-3.03;100.00
75136;BME280;63707;52.212;9.540;2023-02-28T01:45:49;101558.09;;;-2.90;100.00
75136;BME280;63707;52.212;9.540;2023-02-28T01:48:15;101557.38;;;-3.09;100.00
75136;BME280;63707;52.212;9.540;2023-02-28T01:50:43;101560.38;;;-3.32;100.00
75136;BME280;63707;52.212;9.540;2023-02-28T01:53:14;101556.16;;;-3.19;100.00
75136;BME280;63707;52.212;9.540;2023-02-28T01:55:41;101551.13;;;-3.25;100.00
75136;BME280;63707;52.212;9.540;2023-02-28T01:58:08;101550.81;;;-3.36;100.00
75136;BME280;63707;52.212;9.540;2023-02-28T02:00:34;101547.88;;;-3.30;100.00
75136;BME280;63707;52.212;9.540;2023-02-28T02:03:06;101552.63;;;-3.20;100.00
75136;BME280;63707;52.212;9.540;2023-02-28T02:05:31;101556.06;;;-3.35;100.00
75136;BME280;63707;52.212;9.540;2023-02-28T02:08:01;101557.09;;;-3.37;100.00
75136;BME280;63707;52.212;9.540;2023-02-28T02:10:32;101550.53;;;-3.30;100.00
75136;BME280;63707;52.212;9.540;2023-02-28T02:13:08;101550.38;;;-3.27;100.00
75136;BME280;63707;52.212;9.540;2023-02-28T02:15:41;101553.97;;;-3.28;100.00
75136;BME280;63707;52.212;9.540;2023-02-28T02:18:14;101549.19;;;-3.22;100.00
75136;BME280;63707;52.212;9.540;2023-02-28T02:21:11;101544.03;;;-3.09;100.00
75136;BME280;63707;52.212;9.540;2023-02-28T02:26:55;101541.19;;;-3.06;100.00
75136;BME280;63707;52.212;9.540;2023-02-28T02:29:38;101538.63;;;-3.07;100.00
75136;BME280;63707;52.212;9.540;2023-02-28T02:32:48;101527.44;;;-3.14;100.00
75136;BME280;63707;52.212;9.540;2023-02-28T02:35:24;101537.31;;;-3.16;100.00
75136;BME280;63707;52.212;9.540;2023-02-28T02:37:52;101526.25;;;-3.08;100.00
75136;BME280;63707;52.212;9.540;2023-02-28T02:40:25;101531.47;;;-3.07;100.00
75136;BME280;63707;52.212;9.540;2023-02-28T02:42:58;101524.97;;;-3.01;100.00
75136;BME280;63707;52.212;9.540;2023-02-28T02:45:29;101526.50;;;-3.13;100.00
75136;BME280;63707;52.212;9.540;2023-02-28T02:48:02;101523.38;;;-3.21;100.00
75136;BME280;63707;52.212;9.540;2023-02-28T02:50:34;101523.94;;;-3.32;100.00
75136;BME280;63707;52.212;9.540;2023-02-28T02:53:03;101526.41;;;-3.11;100.00
75136;BME280;63707;52.212;9.540;2023-02-28T02:55:31;101529.31;;;-3.16;100.00
75136;BME280;63707;52.212;9.540;2023-02-28T02:58:01;101533.56;;;-2.96;100.00
75136;BME280;63707;52.212;9.540;2023-02-28T03:00:33;101537.25;;;-2.99;100.00
75136;BME280;63707;52.212;9.540;2023-02-28T03:03:00;101529.25;;;-2.99;100.00
75136;BME280;63707;52.212;9.540;2023-02-28T03:05:30;101533.91;;;-3.02;100.00
75136;BME280;63707;52.212;9.540;2023-02-28T03:07:57;101531.56;;;-3.08;100.00
75136;BME280;63707;52.212;9.540;2023-02-28T03:10:41;101529.09;;;-2.96;100.00
75136;BME280;63707;52.212;9.540;2023-02-28T03:13:18;101523.31;;;-3.04;100.00
75136;BME280;63707;52.212;9.540;2023-02-28T03:15:57;101521.44;;;-3.02;100.00
75136;BME280;63707;52.212;9.540;2023-02-28T03:18:32;101514.53;;;-3.06;100.00
75136;BME280;63707;52.212;9.540;2023-02-28T03:21:06;101521.00;;;-3.10;100.00
75136;BME280;63707;52.212;9.540;2023-02-28T03:23:42;101515.56;;;-3.08;100.00
75136;BME280;63707;52.212;9.540;2023-02-28T03:26:13;101520.47;;;-3.17;100.00
75136;BME280;63707;52.212;9.540;2023-02-28T03:28:51;101520.63;;;-3.20;100.00
75136;BME280;63707;52.212;9.540;2023-02-28T03:31:22;101527.31;;;-3.28;100.00
75136;BME280;63707;52.212;9.540;2023-02-28T03:33:55;101524.50;;;-3.42;100.00
75136;BME280;63707;52.212;9.540;2023-02-28T03:36:28;101520.47;;;-3.67;100.00
75136;BME280;63707;52.212;9.540;2023-02-28T03:38:58;101523.81;;;-3.81;100.00
75136;BME280;63707;52.212;9.540;2023-02-28T03:41:31;101527.59;;;-3.67;100.00
75136;BME280;63707;52.212;9.540;2023-02-28T03:44:00;101521.94;;;-3.78;100.00
75136;BME280;63707;52.212;9.540;2023-02-28T03:46:31;101521.31;;;-4.01;100.00
75136;BME280;63707;52.212;9.540;2023-02-28T03:49:02;101519.75;;;-3.88;100.00
75136;BME280;63707;52.212;9.540;2023-02-28T03:51:31;101522.34;;;-3.69;100.00
75136;BME280;63707;52.212;9.540;2023-02-28T03:53:59;101529.53;;;-3.88;100.00
75136;BME280;63707;52.212;9.540;2023-02-28T03:56:31;101529.31;;;-4.01;100.00
75136;BME280;63707;52.212;9.540;2023-02-28T03:59:02;101525.00;;;-4.03;100.00
75136;BME280;63707;52.212;9.540;2023-02-28T04:01:34;101525.00;;;-4.03;100.00
75136;BME280;63707;52.212;9.540;2023-02-28T04:04:01;101520.00;;;-4.09;100.00
75136;BME280;63707;52.212;9.540;2023-02-28T04:06:27;101515.13;;;-4.01;100.00
75136;BME280;63707;52.212;9.540;2023-02-28T04:08:56;101519.22;;;-3.94;100.00
75136;BME280;63707;52.212;9.540;2023-02-28T04:11:24;101515.53;;;-3.92;100.00
75136;BME280;63707;52.212;9.540;2023-02-28T04:13:53;101519.78;;;-3.70;100.00
75136;BME280;63707;52.212;9.540;2023-02-28T04:16:18;101523.34;;;-3.89;100.00
75136;BME280;63707;52.212;9.540;2023-02-28T04:18:44;101521.47;;;-3.87;100.00
75136;BME280;63707;52.212;9.540;2023-02-28T04:21:10;101522.41;;;-3.88;100.00
75136;BME280;63707;52.212;9.540;2023-02-28T04:23:35;101528.59;;;-4.04;100.00
75136;BME280;63707;52.212;9.540;2023-02-28T04:26:03;101527.44;;;-4.16;100.00
75136;BME280;63707;52.212;9.540;2023-02-28T04:28:29;101530.94;;;-4.16;100.00
75136;BME280;63707;52.212;9.540;2023-02-28T04:30:55;101531.44;;;-3.90;100.00
75136;BME280;63707;52.212;9.540;2023-02-28T04:33:21;101532.91;;;-4.02;100.00
75136;BME280;63707;52.212;9.540;2023-02-28T04:35:47;101531.88;;;-3.82;100.00
75136;BME280;63707;52.212;9.540;2023-02-28T04:38:12;101530.59;;;-3.73;100.00
75136;BME280;63707;52.212;9.540;2023-02-28T04:40:38;101532.69;;;-3.97;100.00
75136;BME280;63707;52.212;9.540;2023-02-28T04:43:04;101538.38;;;-4.22;100.00
75136;BME280;63707;52.212;9.540;2023-02-28T04:45:30;101537.91;;;-4.13;100.00
75136;BME280;63707;52.212;9.540;2023-02-28T04:47:57;101539.50;;;-4.28;100.00
75136;BME280;63707;52.212;9.540;2023-02-28T04:50:22;101538.44;;;-4.24;100.00
75136;BME280;63707;52.212;9.540;2023-02-28T04:52:48;101537.91;;;-4.13;100.00
75136;BME280;63707;52.212;9.540;2023-02-28T04:55:14;101539.41;;;-4.07;100.00
75136;BME280;63707;52.212;9.540;2023-02-28T04:57:39;101543.47;;;-4.18;100.00
75136;BME280;63707;52.212;9.540;2023-02-28T05:00:10;101540.72;;;-4.16;100.00
75136;BME280;63707;52.212;9.540;2023-02-28T05:02:37;101542.38;;;-4.14;100.00
75136;BME280;63707;52.212;9.540;2023-02-28T05:05:04;101544.09;;;-4.13;100.00
75136;BME280;63707;52.212;9.540;2023-02-28T05:07:30;101545.19;;;-4.17;100.00
75136;BME280;63707;52.212;9.540;2023-02-28T05:09:55;101542.09;;;-4.26;100.00
75136;BME280;63707;52.212;9.540;2023-02-28T05:12:20;101547.81;;;-4.34;100.00
75136;BME280;63707;52.212;9.540;2023-02-28T05:14:46;101554.91;;;-4.34;100.00
75136;BME280;63707;52.212;9.540;2023-02-28T05:17:13;101555.16;;;-4.39;100.00
75136;BME280;63707;52.212;9.540;2023-02-28T05:19:38;101558.19;;;-4.47;100.00
75136;BME280;63707;52.212;9.540;2023-02-28T05:22:04;101554.38;;;-4.60;100.00
75136;BME280;63707;52.212;9.540;2023-02-28T05:24:29;101565.09;;;-4.61;100.00
75136;BME280;63707;52.212;9.540;2023-02-28T05:26:55;101557.91;;;-4.59;100.00
75136;BME280;63707;52.212;9.540;2023-02-28T05:29:20;101555.66;;;-4.50;100.00
75136;BME280;63707;52.212;9.540;2023-02-28T05:31:46;101558.19;;;-4.47;100.00
75136;BME280;63707;52.212;9.540;2023-02-28T05:34:13;101554.97;;;-4.53;100.00
75136;BME280;63707;52.212;9.540;2023-02-28T05:36:41;101561.28;;;-4.56;100.00
75136;BME280;63707;52.212;9.540;2023-02-28T05:39:06;101561.69;;;-4.46;100.00
75136;BME280;63707;52.212;9.540;2023-02-28T05:41:39;101559.81;;;-4.44;100.00
75136;BME280;63707;52.212;9.540;2023-02-28T05:44:04;101566.53;;;-4.54;100.00
75136;BME280;63707;52.212;9.540;2023-02-28T05:46:30;101569.19;;;-4.54;100.00
75136;BME280;63707;52.212;9.540;2023-02-28T05:48:55;101563.56;;;-4.48;100.00
75136;BME280;63707;52.212;9.540;2023-02-28T05:51:24;101566.50;;;-4.35;100.00
75136;BME280;63707;52.212;9.540;2023-02-28T05:53:49;101572.34;;;-4.46;100.00
75136;BME280;63707;52.212;9.540;2023-02-28T05:56:15;101580.47;;;-4.49;100.00
75136;BME280;63707;52.212;9.540;2023-02-28T05:58:40;101577.50;;;-4.43;100.00
75136;BME280;63707;52.212;9.540;2023-02-28T06:01:24;101577.09;;;-4.53;100.00
75136;BME280;63707;52.212;9.540;2023-02-28T06:03:51;101588.16;;;-4.62;100.00
75136;BME280;63707;52.212;9.540;2023-02-28T06:06:16;101582.84;;;-4.43;100.00
75136;BME280;63707;52.212;9.540;2023-02-28T06:08:43;101583.41;;;-4.36;100.00
75136;BME280;63707;52.212;9.540;2023-02-28T06:11:09;101576.28;;;-4.36;100.00
75136;BME280;63707;52.212;9.540;2023-02-28T06:13:35;101579.72;;;-4.34;100.00
75136;BME280;63707;52.212;9.540;2023-02-28T06:16:01;101584.03;;;-4.31;100.00
75136;BME280;63707;52.212;9.540;2023-02-28T06:18:27;101583.47;;;-4.19;100.00
75136;BME280;63707;52.212;9.540;2023-02-28T06:20:52;101575.81;;;-4.27;100.00
75136;BME280;63707;52.212;9.540;2023-02-28T06:23:19;101573.16;;;-4.27;100.00
75136;BME280;63707;52.212;9.540;2023-02-28T06:25:46;101574.09;;;-4.28;100.00
75136;BME280;63707;52.212;9.540;2023-02-28T06:28:12;101576.69;;;-4.26;100.00
75136;BME280;63707;52.212;9.540;2023-02-28T06:30:38;101581.59;;;-4.36;100.00
75136;BME280;63707;52.212;9.540;2023-02-28T06:33:04;101584.81;;;-4.29;100.00
75136;BME280;63707;52.212;9.540;2023-02-28T06:35:30;101581.03;;;-4.24;100.00
75136;BME280;63707;52.212;9.540;2023-02-28T06:37:55;101583.00;;;-4.10;100.00
75136;BME280;63707;52.212;9.540;2023-02-28T06:40:21;101577.69;;;-4.10;100.00
75136;BME280;63707;52.212;9.540;2023-02-28T06:42:48;101587.25;;;-4.06;100.00
75136;BME280;63707;52.212;9.540;2023-02-28T06:45:14;101586.28;;;-4.22;100.00
75136;BME280;63707;52.212;9.540;2023-02-28T06:47:40;101583.31;;;-4.16;100.00
75136;BME280;63707;52.212;9.540;2023-02-28T06:50:07;101591.72;;;-3.89;100.00
75136;BME280;63707;52.212;9.540;2023-02-28T06:52:33;101594.59;;;-3.75;100.00
75136;BME280;63707;52.212;9.540;2023-02-28T06:55:01;101596.88;;;-3.86;100.00
75136;BME280;63707;52.212;9.540;2023-02-28T06:57:27;101603.13;;;-3.68;100.00
75136;BME280;63707;52.212;9.540;2023-02-28T06:59:57;101601.16;;;-3.65;100.00
75136;BME280;63707;52.212;9.540;2023-02-28T07:02:23;101596.91;;;-3.17;100.00
75136;BME280;63707;52.212;9.540;2023-02-28T07:04:48;101588.88;;;-3.00;100.00
75136;BME280;63707;52.212;9.540;2023-02-28T07:07:14;101594.69;;;-2.76;100.00
75136;BME280;63707;52.212;9.540;2023-02-28T07:09:39;101595.47;;;-3.07;100.00
75136;BME280;63707;52.212;9.540;2023-02-28T07:12:05;101597.69;;;-3.15;100.00
75136;BME280;63707;52.212;9.540;2023-02-28T07:14:30;101602.56;;;-2.90;100.00
75136;BME280;63707;52.212;9.540;2023-02-28T07:16:57;101600.81;;;-2.58;100.00
75136;BME280;63707;52.212;9.540;2023-02-28T07:19:24;101591.84;;;-1.94;100.00
75136;BME280;63707;52.212;9.540;2023-02-28T07:21:50;101600.59;;;-2.22;100.00
75136;BME280;63707;52.212;9.540;2023-02-28T07:24:15;101603.34;;;-2.24;100.00
75136;BME280;63707;52.212;9.540;2023-02-28T07:26:43;101606.28;;;-1.67;100.00
75136;BME280;63707;52.212;9.540;2023-02-28T07:29:08;101610.91;;;-0.96;100.00
75136;BME280;63707;52.212;9.540;2023-02-28T07:31:35;101611.22;;;-0.44;100.00
75136;BME280;63707;52.212;9.540;2023-02-28T07:34:02;101616.38;;;-0.41;100.00
75136;BME280;63707;52.212;9.540;2023-02-28T07:36:28;101611.78;;;-1.10;100.00
75136;BME280;63707;52.212;9.540;2023-02-28T07:38:53;101625.63;;;-1.03;100.00
75136;BME280;63707;52.212;9.540;2023-02-28T07:41:21;101621.75;;;-0.69;100.00
75136;BME280;63707;52.212;9.540;2023-02-28T07:43:46;101614.38;;;-0.66;100.00
75136;BME280;63707;52.212;9.540;2023-02-28T07:46:14;101612.94;;;-0.43;100.00
75136;BME280;63707;52.212;9.540;2023-02-28T07:48:40;101605.38;;;0.45;100.00
75136;BME280;63707;52.212;9.540;2023-02-28T07:51:07;101612.31;;;-0.19;100.00
75136;BME280;63707;52.212;9.540;2023-02-28T07:53:33;101612.75;;;0.81;100.00
75136;BME280;63707;52.212;9.540;2023-02-28T07:56:00;101599.78;;;3.72;100.00
75136;BME280;63707;52.212;9.540;2023-02-28T07:58:27;101595.06;;;5.14;100.00
75136;BME280;63707;52.212;9.540;2023-02-28T08:00:53;101593.38;;;6.52;100.00
75136;BME280;63707;52.212;9.540;2023-02-28T08:03:20;101588.09;;;8.64;100.00
75136;BME280;63707;52.212;9.540;2023-02-28T08:05:46;101592.09;;;7.42;100.00
75136;BME280;63707;52.212;9.540;2023-02-28T08:08:14;101587.63;;;8.68;100.00
75136;BME280;63707;52.212;9.540;2023-02-28T08:10:40;101601.91;;;8.70;98.37
75136;BME280;63707;52.212;9.540;2023-02-28T08:13:06;101598.94;;;8.99;91.38
75136;BME280;63707;52.212;9.540;2023-02-28T08:15:31;101584.88;;;10.81;76.22
75136;BME280;63707;52.212;9.540;2023-02-28T08:17:57;101579.19;;;10.33;72.00
75136;BME280;63707;52.212;9.540;2023-02-28T08:20:23;101574.88;;;9.72;72.21
75136;BME280;63707;52.212;9.540;2023-02-28T08:22:48;101575.66;;;11.78;66.25
75136;BME280;63707;52.212;9.540;2023-02-28T08:25:16;101600.84;;;5.91;95.72
75136;BME280;63707;52.212;9.540;2023-02-28T08:27:41;101601.13;;;4.32;100.00
75136;BME280;63707;52.212;9.540;2023-02-28T08:30:08;101591.75;;;8.72;90.59
75136;BME280;63707;52.212;9.540;2023-02-28T08:32:35;101601.63;;;6.89;89.90
75136;BME280;63707;52.212;9.540;2023-02-28T08:35:00;101601.81;;;7.35;87.53
75136;BME280;63707;52.212;9.540;2023-02-28T08:37:27;101588.53;;;8.95;89.08
75136;BME280;63707;52.212;9.540;2023-02-28T08:39:52;101585.03;;;9.96;78.02
75136;BME280;63707;52.212;9.540;2023-02-28T08:42:19;101583.78;;;11.47;69.72
75136;BME280;63707;52.212;9.540;2023-02-28T08:44:44;101574.97;;;13.44;55.11
75136;BME280;63707;52.212;9.540;2023-02-28T08:47:10;101579.78;;;13.42;55.76
75136;BME280;63707;52.212;9.540;2023-02-28T08:49:36;101589.00;;;10.18;63.48
75136;BME280;63707;52.212;9.540;2023-02-28T08:52:02;101580.78;;;11.73;61.98
75136;BME280;63707;52.212;9.540;2023-02-28T08:54:28;101587.16;;;11.57;61.54
75136;BME280;63707;52.212;9.540;2023-02-28T08:56:56;101579.59;;;11.83;65.50
75136;BME280;63707;52.212;9.540;2023-02-28T08:59:23;101588.56;;;11.45;60.46
75136;BME280;63707;52.212;9.540;2023-02-28T09:01:48;101595.50;;;11.55;64.62
75136;BME280;63707;52.212;9.540;2023-02-28T09:04:14;101585.56;;;13.09;57.21
75136;BME280;63707;52.212;9.540;2023-02-28T09:06:39;101582.16;;;15.60;50.80
75136;BME280;63707;52.212;9.540;2023-02-28T09:09:05;101598.09;;;10.27;77.09
75136;BME280;63707;52.212;9.540;2023-02-28T09:11:33;101600.28;;;11.61;64.71
75136;BME280;63707;52.212;9.540;2023-02-28T09:13:58;101603.34;;;12.45;61.84
75136;BME280;63707;52.212;9.540;2023-02-28T09:16:30;101606.44;;;12.11;61.45
75136;BME280;63707;52.212;9.540;2023-02-28T09:18:56;101605.56;;;12.10;64.79
75136;BME280;63707;52.212;9.540;2023-02-28T09:21:22;101605.69;;;12.71;59.92
75136;BME280;63707;52.212;9.540;2023-02-28T09:23:49;101609.56;;;11.12;61.23
75136;BME280;63707;52.212;9.540;2023-02-28T09:26:16;101610.09;;;9.74;62.82
75136;BME280;63707;52.212;9.540;2023-02-28T09:28:42;101602.63;;;12.51;56.91
75136;BME280;63707;52.212;9.540;2023-02-28T09:31:12;101613.59;;;9.58;66.89
75136;BME280;63707;52.212;9.540;2023-02-28T09:33:39;101611.78;;;10.76;66.41
75136;BME280;63707;52.212;9.540;2023-02-28T09:36:05;101620.56;;;10.29;65.79
75136;BME280;63707;52.212;9.540;2023-02-28T09:38:30;101616.03;;;12.38;60.46
75136;BME280;63707;52.212;9.540;2023-02-28T09:40:58;101620.81;;;10.60;69.00
75136;BME280;63707;52.212;9.540;2023-02-28T09:43:26;101609.47;;;11.85;65.52
75136;BME280;63707;52.212;9.540;2023-02-28T09:45:58;101607.88;;;10.62;64.67
75136;BME280;63707;52.212;9.540;2023-02-28T09:48:29;101591.44;;;12.38;60.29
75136;BME280;63707;52.212;9.540;2023-02-28T09:51:02;101582.28;;;14.68;54.05
75136;BME280;63707;52.212;9.540;2023-02-28T09:53:30;101591.44;;;13.73;54.08
75136;BME280;63707;52.212;9.540;2023-02-28T09:56:03;101602.41;;;12.98;56.79
75136;BME280;63707;52.212;9.540;2023-02-28T09:58:33;101601.00;;;12.03;62.06
75136;BME280;63707;52.212;9.540;2023-02-28T10:01:06;101599.66;;;13.21;55.98
75136;BME280;63707;52.212;9.540;2023-02-28T10:03:38;101598.34;;;12.48;56.38
75136;BME280;63707;52.212;9.540;2023-02-28T10:06:12;101595.19;;;13.58;53.89
75136;BME280;63707;52.212;9.540;2023-02-28T10:08:42;101612.16;;;8.41;80.21
75136;BME280;63707;52.212;9.540;2023-02-28T10:11:12;101597.44;;;12.56;65.47
75136;BME280;63707;52.212;9.540;2023-02-28T10:13:52;101607.53;;;11.14;68.46
75136;BME280;63707;52.212;9.540;2023-02-28T10:16:25;101599.56;;;12.91;60.83
75136;BME280;63707;52.212;9.540;2023-02-28T10:18:57;101604.13;;;10.71;65.79
75136;BME280;63707;52.212;9.540;2023-02-28T10:21:30;101607.09;;;10.27;76.81
75136;BME280;63707;52.212;9.540;2023-02-28T10:24:04;101597.31;;;12.95;58.56
75136;BME280;63707;52.212;9.540;2023-02-28T10:26:36;101598.66;;;12.53;60.85
75136;BME280;63707;52.212;9.540;2023-02-28T10:29:02;101606.28;;;12.04;64.19
75136;BME280;63707;52.212;9.540;2023-02-28T10:31:28;101594.59;;;14.57;54.07
75136;BME280;63707;52.212;9.540;2023-02-28T10:33:53;101588.41;;;14.34;53.94
75136;BME280;63707;52.212;9.540;2023-02-28T10:36:21;101596.06;;;11.26;60.50
75136;BME280;63707;52.212;9.540;2023-02-28T10:38:48;101590.00;;;13.63;56.36
75136;BME280;63707;52.212;9.540;2023-02-28T10:41:16;101585.66;;;13.68;53.66
75136;BME280;63707;52.212;9.540;2023-02-28T10:43:50;101611.16;;;8.77;82.49
75136;BME280;63707;52.212;9.540;2023-02-28T10:46:18;101595.59;;;10.42;71.19
75136;BME280;63707;52.212;9.540;2023-02-28T10:49:01;101578.00;;;14.87;52.36
75136;BME280;63707;52.212;9.540;2023-02-28T10:51:34;101596.91;;;11.43;65.75
75136;BME280;63707;52.212;9.540;2023-02-28T10:54:03;101607.56;;;8.41;81.51
75136;BME280;63707;52.212;9.540;2023-02-28T10:56:29;101592.78;;;12.87;62.51
75136;BME280;63707;52.212;9.540;2023-02-28T10:58:57;101588.34;;;13.24;58.80
75136;BME280;63707;52.212;9.540;2023-02-28T11:01:24;101583.13;;;14.17;57.97
75136;BME280;63707;52.212;9.540;2023-02-28T11:03:51;101588.69;;;13.73;55.36
75136;BME280;63707;52.212;9.540;2023-02-28T11:06:19;101592.22;;;11.68;62.02
75136;BME280;63707;52.212;9.540;2023-02-28T11:08:49;101575.59;;;14.20;54.51
75136;BME280;63707;52.212;9.540;2023-02-28T11:11:17;101590.09;;;11.39;69.79
75136;BME280;63707;52.212;9.540;2023-02-28T11:13:45;101590.16;;;11.78;60.93
75136;BME280;63707;52.212;9.540;2023-02-28T11:16:13;101592.91;;;13.09;57.58
75136;BME280;63707;52.212;9.540;2023-02-28T11:18:42;101578.75;;;13.28;54.68
75136;BME280;63707;52.212;9.540;2023-02-28T11:21:09;101580.13;;;14.12;52.94
75136;BME280;63707;52.212;9.540;2023-02-28T11:23:41;101578.38;;;13.31;52.53
75136;BME280;63707;52.212;9.540;2023-02-28T11:26:07;101584.13;;;9.88;61.58
75136;BME280;63707;52.212;9.540;2023-02-28T11:28:39;101564.31;;;13.78;52.55
75136;BME280;63707;52.212;9.540;2023-02-28T11:31:15;101596.81;;;8.67;69.88
75136;BME280;63707;52.212;9.540;2023-02-28T11:33:43;101571.53;;;10.29;64.72
75136;BME280;63707;52.212;9.540;2023-02-28T11:36:13;101564.81;;;10.07;65.32
75136;BME280;63707;52.212;9.540;2023-02-28T11:38:40;101564.19;;;11.82;59.59
75136;BME280;63707;52.212;9.540;2023-02-28T11:41:23;101553.50;;;11.64;59.52
75136;BME280;63707;52.212;9.540;2023-02-28T11:44:18;101569.19;;;7.54;74.18
75136;BME280;63707;52.212;9.540;2023-02-28T11:46:49;101573.13;;;7.32;72.43
75136;BME280;63707;52.212;9.540;2023-02-28T11:49:28;101573.84;;;6.39;75.60
75136;BME280;63707;52.212;9.540;2023-02-28T11:51:59;101586.75;;;4.43;90.93
75136;BME280;63707;52.212;9.540;2023-02-28T11:54:35;101580.03;;;5.51;94.18
75136;BME280;63707;52.212;9.540;2023-02-28T11:57:16;101580.69;;;4.71;97.95
75136;BME280;63707;52.212;9.540;2023-02-28T11:59:54;101561.47;;;5.37;93.69
75136;BME280;63707;52.212;9.540;2023-02-28T12:02:28;101561.13;;;5.21;100.00
75136;BME280;63707;52.212;9.540;2023-02-28T12:05:11;101565.19;;;5.15;100.00
75136;BME280;63707;52.212;9.540;2023-02-28T12:07:47;101547.50;;;9.40;85.67
75136;BME280;63707;52.212;9.540;2023-02-28T12:10:21;101563.78;;;4.90;100.00
75136;BME280;63707;52.212;9.540;2023-02-28T12:12:57;101560.56;;;4.76;100.00
75136;BME280;63707;52.212;9.540;2023-02-28T12:18:49;101562.53;;;3.77;100.00
75136;BME280;63707;52.212;9.540;2023-02-28T12:21:22;101549.09;;;4.09;100.00
75136;BME280;63707;52.212;9.540;2023-02-28T12:24:05;101540.47;;;4.89;100.00
75136;BME280;63707;52.212;9.540;2023-02-28T12:26:36;101510.50;;;13.41;65.42
75136;BME280;63707;52.212;9.540;2023-02-28T12:29:09;101514.31;;;10.69;75.78
75136;BME280;63707;52.212;9.540;2023-02-28T12:31:41;101507.84;;;14.77;57.55
75136;BME280;63707;52.212;9.540;2023-02-28T12:34:12;101503.75;;;15.23;49.02
75136;BME280;63707;52.212;9.540;2023-02-28T12:36:41;101521.31;;;8.79;73.47
75136;BME280;63707;52.212;9.540;2023-02-28T12:39:13;101514.78;;;12.00;63.93
75136;BME280;63707;52.212;9.540;2023-02-28T12:41:42;101518.00;;;12.04;49.84
75136;BME280;63707;52.212;9.540;2023-02-28T12:44:13;101512.28;;;13.49;45.00
75136;BME280;63707;52.212;9.540;2023-02-28T12:46:45;101509.75;;;12.80;48.72
75136;BME280;63707;52.212;9.540;2023-02-28T12:49:17;101494.50;;;13.74;48.24
75136;BME280;63707;52.212;9.540;2023-02-28T12:51:45;101510.28;;;11.76;47.31
75136;BME280;63707;52.212;9.540;2023-02-28T12:54:19;101495.97;;;13.92;47.55
75136;BME280;63707;52.212;9.540;2023-02-28T12:56:53;101512.44;;;10.86;51.34
75136;BME280;63707;52.212;9.540;2023-02-28T12:59:24;101502.50;;;10.04;56.94